Windemere Lake, Indiana
Current Conditions -  °F | °C
As of 1:53 PM on Thursday 30 Oct 2014 (Local Time) from KHUF Reporting Station
Clear Clear  
Wind Chill: 52°   Ceiling: Unl
Heat Index: 52°   Visibility: 10mi
Dew Point: 35°   Wind: 7mph
Humidity: 53%   Direction: 200°SSW
Pressure: 30.12"   Gusts: NA
Location:  39.5107°N, 87.4772°W
Report Text: KHUF 301753Z 20006KT 10SM CLR 11/02 A3012 RMK AO2 SLP204 T01110017 10111 21006 58017
Loading
Personal Weather Stations






























Interactive Weather Map
Tropical Storm Tracking
New forecast layout! Learn more

10-Day Weather Forecast

Advertisements
Track Severe Weather on mobile